createdAt,value
2019-02-17T00:02:36.688Z,1.90
2019-02-17T00:05:37.087Z,1.80
2019-02-17T00:08:37.378Z,1.80
2019-02-17T00:11:37.671Z,1.70
2019-02-17T00:14:38.128Z,1.60
2019-02-17T00:17:38.690Z,1.60
2019-02-17T00:20:39.194Z,1.70
2019-02-17T00:23:39.500Z,1.70
2019-02-17T00:26:40.620Z,1.60
2019-02-17T00:29:41.885Z,1.60
2019-02-17T00:32:42.476Z,1.60
2019-02-17T00:35:43.570Z,1.50
2019-02-17T00:38:44.710Z,1.40
2019-02-17T00:41:45.485Z,1.40
2019-02-17T00:44:46.630Z,1.40
2019-02-17T00:47:47.030Z,1.30
2019-02-17T00:50:47.409Z,1.30
2019-02-17T00:53:47.743Z,1.40
2019-02-17T00:56:48.035Z,1.30
2019-02-17T00:59:49.052Z,1.20
2019-02-17T01:02:49.470Z,1.20
2019-02-17T01:05:49.944Z,1.20
2019-02-17T01:08:51.054Z,1.20
2019-02-17T01:11:52.094Z,1.10
2019-02-17T01:14:52.655Z,0.90
2019-02-17T01:17:53.109Z,0.90
2019-02-17T01:20:53.681Z,0.90
2019-02-17T01:23:54.153Z,0.90
2019-02-17T01:26:54.881Z,0.80
2019-02-17T01:29:55.319Z,0.60
2019-02-17T01:32:55.916Z,0.70
2019-02-17T01:35:44.825Z,0.60
2019-02-17T01:38:52.665Z,0.70
2019-02-17T01:41:53.022Z,0.70
2019-02-17T01:44:53.430Z,0.70
2019-02-17T01:47:53.726Z,0.70
2019-02-17T01:50:54.005Z,0.60
2019-02-17T01:53:54.337Z,0.60
2019-02-17T01:56:54.822Z,0.60
2019-02-17T01:59:55.422Z,0.60
2019-02-17T02:02:44.247Z,0.60
2019-02-17T02:05:45.018Z,0.70
2019-02-17T02:08:45.897Z,0.60
2019-02-17T02:11:47.093Z,0.70
2019-02-17T02:14:47.762Z,0.60
2019-02-17T02:17:48.437Z,0.60
2019-02-17T02:20:49.129Z,0.40
2019-02-17T02:23:49.693Z,0.40
2019-02-17T02:26:50.013Z,0.40
2019-02-17T02:29:51.157Z,0.30
2019-02-17T02:32:51.464Z,0.30
2019-02-17T02:35:51.935Z,0.30
2019-02-17T02:38:52.227Z,0.20
2019-02-17T02:41:52.755Z,0.10
2019-02-17T02:44:53.153Z,0.00
2019-02-17T02:47:53.955Z,0.10
2019-02-17T02:50:54.340Z,0.10
2019-02-17T02:53:55.341Z,0.10
2019-02-17T02:56:55.829Z,0.20
2019-02-17T02:59:56.265Z,0.10
2019-02-17T03:02:57.649Z,0.10
2019-02-17T03:05:59.782Z,0.10
2019-02-17T03:09:00.805Z,0.10
2019-02-17T03:12:01.645Z,0.00
2019-02-17T03:15:01.900Z,0.00
2019-02-17T03:18:02.588Z,-0.10
2019-02-17T03:21:03.719Z,-0.10
2019-02-17T03:24:04.212Z,-0.10
2019-02-17T03:27:04.758Z,-0.20
2019-02-17T03:30:06.246Z,-0.20
2019-02-17T03:33:07.459Z,-0.20
2019-02-17T03:36:07.816Z,-0.20
2019-02-17T03:39:08.123Z,-0.30
2019-02-17T03:42:08.573Z,-0.20
2019-02-17T03:45:09.334Z,-0.30
2019-02-17T03:48:09.918Z,-0.30
2019-02-17T03:51:10.256Z,-0.50
2019-02-17T03:54:10.971Z,-0.40
2019-02-17T03:57:12.193Z,-0.40
2019-02-17T04:00:16.998Z,-0.40
2019-02-17T04:03:15.003Z,-0.40
2019-02-17T04:06:15.415Z,-0.40
2019-02-17T04:09:15.785Z,-0.40
2019-02-17T04:12:16.076Z,-0.40
2019-02-17T04:15:16.751Z,-0.40
2019-02-17T04:18:17.196Z,-0.50
2019-02-17T04:21:17.687Z,-0.40
2019-02-17T04:24:18.217Z,-0.50
2019-02-17T04:27:18.546Z,-0.50
2019-02-17T04:30:28.934Z,-0.60
2019-02-17T04:33:21.351Z,-0.60
2019-02-17T04:36:22.617Z,-0.60
2019-02-17T04:39:22.948Z,-0.50
2019-02-17T04:42:23.274Z,-0.60
2019-02-17T04:45:23.746Z,-0.60
2019-02-17T04:48:24.571Z,-0.70
2019-02-17T04:51:25.325Z,-0.70
2019-02-17T04:54:25.765Z,-0.70
2019-02-17T04:57:26.456Z,-0.80
2019-02-17T05:00:27.566Z,-0.70
2019-02-17T05:03:28.486Z,-0.70
2019-02-17T05:06:28.798Z,-0.80
2019-02-17T05:09:29.105Z,-0.80
2019-02-17T05:12:29.517Z,-0.80
2019-02-17T05:15:29.942Z,-0.70
2019-02-17T05:18:31.141Z,-0.80
2019-02-17T05:21:31.471Z,-0.90
2019-02-17T05:24:32.119Z,-0.90
2019-02-17T05:27:32.741Z,-0.90
2019-02-17T05:30:33.056Z,-0.90
2019-02-17T05:33:33.333Z,-1.10
2019-02-17T05:36:34.275Z,-1.10
2019-02-17T05:39:35.063Z,-1.00
2019-02-17T05:42:35.925Z,-1.00
2019-02-17T05:45:36.664Z,-1.00
2019-02-17T05:48:37.241Z,-1.00
2019-02-17T05:51:37.715Z,-1.10
2019-02-17T05:54:38.325Z,-1.00
2019-02-17T05:57:38.849Z,-1.00
2019-02-17T06:00:39.890Z,-1.00
2019-02-17T06:03:40.407Z,-1.10
2019-02-17T06:06:40.945Z,-1.00
2019-02-17T06:09:42.041Z,-1.10
2019-02-17T06:12:43.060Z,-1.10
2019-02-17T06:15:43.570Z,-1.20
2019-02-17T06:18:44.021Z,-1.20
2019-02-17T06:21:44.413Z,-1.20
2019-02-17T06:24:45.243Z,-1.20
2019-02-17T06:27:45.759Z,-1.10
2019-02-17T06:30:46.099Z,-1.20
2019-02-17T06:33:46.797Z,-1.20
2019-02-17T06:36:47.287Z,-1.20
2019-02-17T06:39:47.853Z,-1.20
2019-02-17T06:42:48.961Z,-1.20
2019-02-17T06:45:49.677Z,-1.20
2019-02-17T06:48:49.986Z,-1.10
2019-02-17T06:51:50.373Z,-1.40
2019-02-17T06:54:52.297Z,-1.30
2019-02-17T06:57:53.033Z,-1.20
2019-02-17T07:00:53.389Z,-1.20
2019-02-17T07:03:53.803Z,-1.10
2019-02-17T07:06:55.970Z,-1.10
2019-02-17T07:09:56.655Z,-0.90
2019-02-17T07:12:45.232Z,-0.80
2019-02-17T07:15:45.814Z,-0.70
2019-02-17T07:18:46.222Z,-0.70
2019-02-17T07:21:47.300Z,-0.60
2019-02-17T07:24:47.976Z,-0.50
2019-02-17T07:27:48.526Z,-0.30
2019-02-17T07:30:49.165Z,0.00
2019-02-17T07:33:49.731Z,0.30
2019-02-17T07:36:50.520Z,1.20
2019-02-17T07:39:51.711Z,2.10
2019-02-17T07:42:51.998Z,2.90
2019-02-17T07:45:52.375Z,3.60
2019-02-17T07:48:52.778Z,4.00
2019-02-17T07:51:53.144Z,4.50
2019-02-17T07:54:53.533Z,4.90
2019-02-17T07:57:54.163Z,5.20
2019-02-17T08:00:54.606Z,7.10
2019-02-17T08:03:55.070Z,6.60
2019-02-17T08:06:55.537Z,6.60
2019-02-17T08:09:55.855Z,6.80
2019-02-17T08:12:56.425Z,7.10
2019-02-17T08:15:56.809Z,7.60
2019-02-17T08:18:57.782Z,8.00
2019-02-17T08:21:58.354Z,8.50
2019-02-17T08:24:58.767Z,8.90
2019-02-17T08:27:59.480Z,9.30
2019-02-17T08:31:00.201Z,8.80
2019-02-17T08:34:00.649Z,8.60
2019-02-17T08:37:01.226Z,9.10
2019-02-17T08:40:01.832Z,9.90
2019-02-17T08:43:02.206Z,11.20
2019-02-17T08:46:02.464Z,11.50
2019-02-17T08:49:02.776Z,11.00
2019-02-17T08:52:03.067Z,11.50
2019-02-17T08:55:04.111Z,12.00
2019-02-17T08:58:05.905Z,12.50
2019-02-17T09:01:07.373Z,12.30
2019-02-17T09:04:09.093Z,13.60
2019-02-17T09:07:10.018Z,14.70
2019-02-17T09:10:11.234Z,15.10
2019-02-17T09:13:18.397Z,14.60
2019-02-17T09:16:18.873Z,14.10
2019-02-17T09:19:20.019Z,14.20
2019-02-17T09:22:21.608Z,15.40
2019-02-17T09:25:22.845Z,16.40
2019-02-17T09:28:24.583Z,15.90
2019-02-17T09:31:25.725Z,15.80
2019-02-17T09:34:26.841Z,17.20
2019-02-17T09:37:27.951Z,17.80
2019-02-17T09:40:29.350Z,18.30
2019-02-17T09:43:30.237Z,18.60
2019-02-17T09:46:31.985Z,22.10
2019-02-17T09:49:33.181Z,20.10
2019-02-17T09:52:22.340Z,19.90
2019-02-17T09:55:30.814Z,19.80
2019-02-17T09:58:31.780Z,20.00
2019-02-17T10:01:33.154Z,19.50
2019-02-17T10:04:34.492Z,18.50
2019-02-17T10:07:23.624Z,19.60
2019-02-17T10:10:32.118Z,19.10
2019-02-17T10:29:01.502Z,20.80
2019-02-17T10:32:02.425Z,22.90
2019-02-17T10:35:03.315Z,24.20
2019-02-17T10:38:04.054Z,24.40
2019-02-17T10:41:04.685Z,24.00
2019-02-17T10:44:05.285Z,25.00
2019-02-17T10:47:05.913Z,24.30
2019-02-17T10:50:07.327Z,24.00
2019-02-17T10:53:08.642Z,24.00
2019-02-17T10:56:10.079Z,24.60
2019-02-17T10:59:11.384Z,24.80
2019-02-17T11:02:12.013Z,25.00
2019-02-17T11:05:13.419Z,26.10
2019-02-17T11:08:14.742Z,26.90
2019-02-17T11:11:15.514Z,26.60
2019-02-17T11:14:16.309Z,27.60
2019-02-17T11:17:17.726Z,28.30
2019-02-17T11:20:19.014Z,28.00
2019-02-17T11:23:19.740Z,28.70
2019-02-17T11:26:21.139Z,28.30
2019-02-17T11:29:22.566Z,26.60
2019-02-17T11:32:24.041Z,27.80
2019-02-17T11:35:24.673Z,28.70
2019-02-17T11:38:26.132Z,29.00
2019-02-17T11:41:27.618Z,29.20
2019-02-17T11:44:28.572Z,29.30
2019-02-17T11:47:30.070Z,27.20
2019-02-17T11:50:30.880Z,27.30
2019-02-17T11:53:32.172Z,26.00
2019-02-17T11:56:33.072Z,27.20
2019-02-17T11:59:33.702Z,27.30
2019-02-17T12:02:35.181Z,27.70
2019-02-17T12:05:36.520Z,27.90
2019-02-17T12:08:37.850Z,28.00
2019-02-17T12:11:39.220Z,29.70
2019-02-17T12:14:40.082Z,29.00
2019-02-17T12:17:40.650Z,30.60
2019-02-17T12:20:43.890Z,30.10
2019-02-17T12:23:49.707Z,29.70
2019-02-17T12:30:04.611Z,31.20
2019-02-17T12:33:05.906Z,31.10
2019-02-17T12:36:07.161Z,29.50
2019-02-17T12:39:08.102Z,31.20
2019-02-17T12:42:09.551Z,31.80
2019-02-17T12:45:10.714Z,31.90
2019-02-17T12:48:12.029Z,32.00
2019-02-17T12:51:13.306Z,32.30
2019-02-17T12:54:14.635Z,31.60
2019-02-17T12:57:15.679Z,31.70
2019-02-17T13:00:20.675Z,31.30
2019-02-17T13:03:28.272Z,31.80
2019-02-17T13:06:26.543Z,31.20
2019-02-17T13:09:27.747Z,30.60
2019-02-17T13:12:29.199Z,31.80
2019-02-17T13:15:30.400Z,32.70
2019-02-17T13:18:31.234Z,32.70
2019-02-17T13:21:32.565Z,33.20
2019-02-17T13:24:33.649Z,31.70
2019-02-17T13:27:35.120Z,30.00
2019-02-17T13:30:36.414Z,31.80
2019-02-17T13:33:39.405Z,32.20
2019-02-17T13:36:39.980Z,30.50
2019-02-17T13:39:40.757Z,31.70
2019-02-17T13:42:41.635Z,32.20
2019-02-17T13:45:44.689Z,32.50
2019-02-17T13:48:44.758Z,32.50
2019-02-17T13:51:46.241Z,30.10
2019-02-17T13:54:47.654Z,30.30
2019-02-17T13:57:48.229Z,31.30
2019-02-17T14:00:49.734Z,31.80
2019-02-17T14:03:51.214Z,31.50
2019-02-17T14:06:51.868Z,30.30
2019-02-17T14:09:52.790Z,31.30
2019-02-17T14:12:41.753Z,30.30
2019-02-17T14:15:42.958Z,30.30
2019-02-17T14:18:44.226Z,31.80
2019-02-17T14:21:45.794Z,30.70
2019-02-17T14:24:46.403Z,29.30
2019-02-17T14:27:48.010Z,28.50
2019-02-17T14:30:48.614Z,29.30
2019-02-17T14:33:58.093Z,30.70
2019-02-17T14:36:52.334Z,29.90
2019-02-17T14:39:53.047Z,31.40
2019-02-17T14:42:55.432Z,29.10
2019-02-17T14:45:56.614Z,28.20
2019-02-17T14:48:57.224Z,28.10
2019-02-17T14:51:46.299Z,28.80
2019-02-17T14:54:54.450Z,27.70
2019-02-17T14:58:05.000Z,29.60
2019-02-17T15:00:58.727Z,29.10
2019-02-17T15:04:08.100Z,27.20
2019-02-17T15:07:01.948Z,27.80
2019-02-17T15:10:02.613Z,28.00
2019-02-17T15:13:03.309Z,27.40
2019-02-17T15:16:03.943Z,27.70
2019-02-17T15:19:05.572Z,27.60
2019-02-17T15:22:06.950Z,27.10
2019-02-17T15:25:07.645Z,27.40
2019-02-17T15:28:08.453Z,27.20
2019-02-17T15:31:09.949Z,27.30
2019-02-17T15:34:18.419Z,28.30
2019-02-17T15:37:13.518Z,25.90
2019-02-17T15:40:14.327Z,25.70
2019-02-17T15:43:15.874Z,25.00
2019-02-17T15:46:16.771Z,23.80
2019-02-17T15:49:17.806Z,23.00
2019-02-17T15:52:19.321Z,22.20
2019-02-17T15:55:20.880Z,21.50
2019-02-17T15:58:22.608Z,20.90
2019-02-17T16:01:24.058Z,20.40
2019-02-17T16:04:28.533Z,20.00
2019-02-17T16:07:29.100Z,19.60
2019-02-17T16:10:30.026Z,19.40
2019-02-17T16:13:31.852Z,19.10
2019-02-17T16:16:33.415Z,18.70
2019-02-17T16:19:34.729Z,18.40
2019-02-17T16:22:35.848Z,18.30
2019-02-17T16:25:37.528Z,17.90
2019-02-17T16:28:39.274Z,17.70
2019-02-17T16:31:40.824Z,17.50
2019-02-17T16:34:42.432Z,17.30
2019-02-17T16:37:43.867Z,17.00
2019-02-17T16:40:45.521Z,16.60
2019-02-17T16:43:46.813Z,16.40
2019-02-17T16:46:48.610Z,16.10
2019-02-17T16:49:50.269Z,16.00
2019-02-17T16:52:52.141Z,15.60
2019-02-17T16:55:53.210Z,15.30
2019-02-17T16:58:55.037Z,15.20
2019-02-17T17:01:55.998Z,14.90
2019-02-17T17:04:57.246Z,14.80
2019-02-17T17:07:57.788Z,14.60
2019-02-17T17:10:58.347Z,14.50
2019-02-17T17:13:58.991Z,14.30
2019-02-17T17:16:59.539Z,14.20
2019-02-17T17:20:00.018Z,13.60
2019-02-17T17:23:00.651Z,13.60
2019-02-17T17:26:01.584Z,13.30
2019-02-17T17:29:02.241Z,13.00
2019-02-17T17:32:02.721Z,12.60
2019-02-17T17:35:03.169Z,12.40
2019-02-17T17:38:03.496Z,12.30
2019-02-17T17:41:04.023Z,12.00
2019-02-17T17:44:06.970Z,11.90
2019-02-17T17:46:55.662Z,11.80
2019-02-17T17:50:03.680Z,11.80
2019-02-17T17:53:04.733Z,11.60
2019-02-17T17:56:05.095Z,11.40
2019-02-17T17:59:05.958Z,11.20
2019-02-17T18:01:54.545Z,11.10
2019-02-17T18:05:08.728Z,11.00
2019-02-17T18:08:04.685Z,10.70
2019-02-17T18:11:05.785Z,10.50
2019-02-17T18:14:06.231Z,10.50
2019-02-17T18:17:06.774Z,10.40
2019-02-17T18:20:07.823Z,10.40
2019-02-17T18:22:56.598Z,10.20
2019-02-17T18:26:04.514Z,10.20
2019-02-17T18:29:05.223Z,10.00
2019-02-17T18:32:05.633Z,9.80
2019-02-17T18:35:06.309Z,9.70
2019-02-17T18:38:07.309Z,9.50
2019-02-17T18:41:07.786Z,9.40
2019-02-17T18:44:08.186Z,9.00
2019-02-17T18:47:08.846Z,9.00
2019-02-17T18:50:09.362Z,8.60
2019-02-17T18:53:09.894Z,8.70
2019-02-17T18:56:10.440Z,8.60
2019-02-17T18:58:59.202Z,8.60
2019-02-17T19:05:31.878Z,8.40
2019-02-17T19:08:31.714Z,8.20
2019-02-17T19:11:32.615Z,8.20
2019-02-17T19:14:33.472Z,8.00
2019-02-17T19:17:34.113Z,8.00
2019-02-17T19:20:34.766Z,7.80
2019-02-17T19:23:35.473Z,7.40
2019-02-17T19:26:36.216Z,7.40
2019-02-17T19:29:36.902Z,7.20
2019-02-17T19:32:37.717Z,7.00
2019-02-17T19:35:41.886Z,7.00
2019-02-17T19:38:40.916Z,6.90
2019-02-17T19:41:41.497Z,6.60
2019-02-17T19:44:42.058Z,6.70
2019-02-17T19:47:42.400Z,6.60
2019-02-17T19:50:43.578Z,6.50
2019-02-17T19:53:44.090Z,6.50
2019-02-17T19:56:44.859Z,6.40
2019-02-17T19:59:45.336Z,6.40
2019-02-17T20:03:05.008Z,6.30
2019-02-17T20:06:11.454Z,6.20
2019-02-17T20:09:15.371Z,6.20
2019-02-17T20:15:18.239Z,6.00
2019-02-17T20:18:19.098Z,6.00
2019-02-17T20:21:07.687Z,5.90
2019-02-17T20:24:15.589Z,5.90
2019-02-17T20:27:04.268Z,5.80
2019-02-17T20:33:46.045Z,5.70
2019-02-17T20:36:46.480Z,5.70
2019-02-17T20:39:47.152Z,5.50
2019-02-17T20:42:47.511Z,5.40
2019-02-17T20:45:48.393Z,5.40
2019-02-17T20:48:49.154Z,5.00
2019-02-17T20:51:49.714Z,5.00
2019-02-17T20:54:50.397Z,4.80
2019-02-17T20:57:51.227Z,4.80
2019-02-17T21:00:51.594Z,4.90
2019-02-17T21:03:52.072Z,4.80
2019-02-17T21:06:52.394Z,4.70
2019-02-17T21:09:53.191Z,4.70
2019-02-17T21:12:54.327Z,4.70
2019-02-17T21:15:54.717Z,4.60
2019-02-17T21:18:55.259Z,4.50
2019-02-17T21:21:55.767Z,4.60
2019-02-17T21:24:56.246Z,4.40
2019-02-17T21:27:57.055Z,4.40
2019-02-17T21:30:57.626Z,4.30
2019-02-17T21:33:58.186Z,4.20
2019-02-17T21:36:58.479Z,4.20
2019-02-17T21:39:59.796Z,4.10
2019-02-17T21:43:01.017Z,4.10
2019-02-17T21:46:05.371Z,4.10
2019-02-17T21:49:05.977Z,4.10
2019-02-17T21:52:06.298Z,3.90
2019-02-17T21:55:06.915Z,3.60
2019-02-17T21:58:07.232Z,3.50
2019-02-17T22:01:07.911Z,3.50
2019-02-17T22:04:09.236Z,3.40
2019-02-17T22:07:09.878Z,3.30
2019-02-17T22:10:10.673Z,3.30
2019-02-17T22:13:11.950Z,3.40
2019-02-17T22:16:12.840Z,3.50
2019-02-17T22:19:14.152Z,3.40
2019-02-17T22:22:15.290Z,3.30
2019-02-17T22:25:15.979Z,3.40
2019-02-17T22:28:17.179Z,3.30
2019-02-17T22:31:17.428Z,3.30
2019-02-17T22:34:17.794Z,3.20
2019-02-17T22:37:18.597Z,3.20
2019-02-17T22:40:18.847Z,3.10
2019-02-17T22:43:19.666Z,3.00
2019-02-17T22:46:20.193Z,3.00
2019-02-17T22:49:20.487Z,2.90
2019-02-17T22:52:21.034Z,2.80
2019-02-17T22:55:21.454Z,2.80
2019-02-17T22:58:22.205Z,2.80
2019-02-17T23:01:22.655Z,2.80
2019-02-17T23:04:23.169Z,2.70
2019-02-17T23:07:23.514Z,2.60
2019-02-17T23:10:23.960Z,2.60
2019-02-17T23:13:25.324Z,2.60
2019-02-17T23:16:25.641Z,2.60
2019-02-17T23:19:26.007Z,2.50
2019-02-17T23:22:26.450Z,2.30
2019-02-17T23:25:26.969Z,2.20
2019-02-17T23:28:27.702Z,1.90
2019-02-17T23:31:27.969Z,2.00
2019-02-17T23:34:28.582Z,2.20
2019-02-17T23:37:29.026Z,2.20
2019-02-17T23:40:29.561Z,2.10
2019-02-17T23:43:30.358Z,2.10
2019-02-17T23:46:30.827Z,2.00
2019-02-17T23:49:31.394Z,2.00
2019-02-17T23:52:31.805Z,1.80
2019-02-17T23:55:32.239Z,1.90
2019-02-17T23:58:32.766Z,1.90
